WetterOnline ( https://www.wetteronline.de )

Wetter aktuell Zgorzelec

Aktuelles Wetter: Görlitz (240m)

6-stündlich | Neueste Meldungen
Ortszeit Temperatur Wetter
So, 16.06. 20:00 21.7° C bedeckt
So, 16.06. 14:00 23.7° C leicht bewölkt
So, 16.06. 8:00 16.1° C wolkenlos
So, 16.06. 2:00 14.2° C bewölkt
Sa, 15.06. 20:00 19.7° C bewölkt
Sa, 15.06. 14:00 18.7° C leichter Regen
Sa, 15.06. 8:00 17.8° C wolkig
Sa, 15.06. 2:00 14.2° C bedeckt
Ortszeit Temperatur Wetter
So, 16.06. 23:00 16.0° C wolkenlos
So, 16.06. 22:50 16.0° C wolkenlos
So, 16.06. 22:40 16.3° C fast wolkenlos
So, 16.06. 22:30 16.7° C leicht bewölkt
So, 16.06. 22:20 16.7° C leicht bewölkt
So, 16.06. 22:10 17.2° C leicht bewölkt
So, 16.06. 22:00 17.6° C leicht bewölkt
So, 16.06. 21:30 18.4° C wolkig
So, 16.06. 21:00 19.8° C leicht bewölkt
So, 16.06. 20:30 21.7° C bedeckt
So, 16.06. 20:00 21.7° C bedeckt
Ortszeit Relative Feuchte Sichtweite
So, 16.06. 20:00 48% >70 km
So, 16.06. 14:00 34% 55 km
So, 16.06. 8:00 68% >70 km
So, 16.06. 2:00 86% 65 km
Sa, 15.06. 20:00 62% 65 km
Sa, 15.06. 14:00 76% 40 km
Sa, 15.06. 8:00 65% 60 km
Sa, 15.06. 2:00 77% 45 km
Ortszeit Relative Feuchte Sichtweite
So, 16.06. 23:00 72% >70 km
So, 16.06. 22:50 72% -
So, 16.06. 22:40 71% -
So, 16.06. 22:30 70% >70 km
So, 16.06. 22:20 70% -
So, 16.06. 22:10 66% -
So, 16.06. 22:00 64% 60 km
So, 16.06. 21:30 60% 50 km
So, 16.06. 21:00 53% >70 km
So, 16.06. 20:30 47% 65 km
So, 16.06. 20:00 48% >70 km
Ortszeit Niederschlagsmenge Niederschlagsart
So, 16.06. 20:00 0.0 l/m2 in 12 Std. -
So, 16.06. 14:00 0.0 l/m2 in 6 Std. -
So, 16.06. 8:00 0.0 l/m2 in 12 Std. -
So, 16.06. 2:00 0.0 l/m2 in 6 Std. -
Sa, 15.06. 20:00 0.1 l/m2 in 12 Std. Regen
Sa, 15.06. 14:00 0.1 l/m2 in 6 Std. Regen
Sa, 15.06. 8:00 0.0 l/m2 in 12 Std. -
Sa, 15.06. 2:00 0.0 l/m2 in 6 Std. -
Ortszeit Niederschlagsmenge Niederschlagsart
So, 16.06. 23:00 0.0 l/m2 in 1 Std. -
So, 16.06. 22:50 keine Meldung -
So, 16.06. 22:40 keine Meldung -
So, 16.06. 22:30 0.0 l/m2 in 30 Min -
So, 16.06. 22:20 keine Meldung -
So, 16.06. 22:10 keine Meldung -
So, 16.06. 22:00 0.0 l/m2 in 1 Std. -
So, 16.06. 21:30 0.0 l/m2 in 30 Min -
So, 16.06. 21:00 0.0 l/m2 in 1 Std. -
So, 16.06. 20:30 0.0 l/m2 in 30 Min -
So, 16.06. 20:00 0.0 l/m2 in 1 Std. -
Ortszeit Stärke Spitze Richtung
km/h Bft. km/h Grad Sektor
So, 16.06. 20:00 14 3 36 200° S
So, 16.06. 14:00 11 2 25 260° W
So, 16.06. 8:00 7 2 11 230° SW
So, 16.06. 2:00 6 1 19 230° SW
Sa, 15.06. 20:00 7 2 32 240° SW
Sa, 15.06. 14:00 6 1 35 210° SW
Sa, 15.06. 8:00 11 2 28 130° SO
Sa, 15.06. 2:00 9 2 19 180° S
Ortszeit Stärke Spitze Richtung
km/h Bft. km/h Grad Sektor
So, 16.06. 23:00 7 2 14 160° S
So, 16.06. 22:50 7 2 - 160° S
So, 16.06. 22:40 11 2 - 160° S
So, 16.06. 22:30 9 2 13 160° S
So, 16.06. 22:20 9 2 - 160° S
So, 16.06. 22:10 9 2 - 160° S
So, 16.06. 22:00 7 2 14 170° S
So, 16.06. 21:30 11 2 14 180° S
So, 16.06. 21:00 13 3 20 190° S
So, 16.06. 20:30 14 3 18 210° SW
So, 16.06. 20:00 14 3 29 200° S
Ortszeit Untergrenze Bedeckung Gattung
total tief tief mittel hoch
So, 16.06. 20:00 3300 m 8/8 8/8 - - -
So, 16.06. 14:00 2100 m 4/8 4/8 - - -
So, 16.06. 8:00 - 0/8 0/8 - - -
So, 16.06. 2:00 6600 m 8/8 4/8 - - -
Sa, 15.06. 20:00 1500 m 7/8 7/8 - - -
Sa, 15.06. 14:00 2700 m 8/8 7/8 - - -
Sa, 15.06. 8:00 4800 m 8/8 2/8 - - -
Sa, 15.06. 2:00 2400 m 8/8 8/8 - - -
Ortszeit Bedeckungsgrad in Achtel und Wolkenuntergrenze
So, 16.06. 23:00 keine Wolken
So, 16.06. 22:50 keine Wolken
So, 16.06. 22:40 1
So, 16.06. 22:30 3(3300m)
So, 16.06. 22:20 3(3300m)
So, 16.06. 22:10 2
So, 16.06. 22:00 3(3300m)
So, 16.06. 21:30 5(3300m)
So, 16.06. 21:00 3(3300m)
So, 16.06. 20:30 8(3300m)
So, 16.06. 20:00 8(3300m)
Ortszeit Luftdruck NN (hPa) Tendenz (hPa in 3 Std.)
So, 16.06. 20:00 1010 + 0,2
So, 16.06. 14:00 1010 - 0,7
So, 16.06. 8:00 1012 + 0,6
So, 16.06. 2:00 1011 + 0,2
Sa, 15.06. 20:00 1009 + 0,4
Sa, 15.06. 14:00 1008 + 0,2
Sa, 15.06. 8:00 1007 - 1,5
Sa, 15.06. 2:00 1011 - 1,6
Ortszeit Luftdruck NN (hPa) Tendenz (hPa in 3 Std.)
So, 16.06. 23:00 1012 + 1,3
So, 16.06. 22:50 1012 keine Meldung
So, 16.06. 22:40 1012 keine Meldung
So, 16.06. 22:30 1011 + 1,4
So, 16.06. 22:20 1011 keine Meldung
So, 16.06. 22:10 1011 keine Meldung
So, 16.06. 22:00 1011 + 1,1
So, 16.06. 21:30 1011 + 0,9
So, 16.06. 21:00 1010 + 0,5
So, 16.06. 20:30 1010 + 0,4
So, 16.06. 20:00 1010 + 0,2
Ortszeit Schneehöhe (cm)
So, 16.06. 20:00 0
So, 16.06. 14:00 0
So, 16.06. 8:00 0
So, 16.06. 2:00 0
Sa, 15.06. 20:00 0
Sa, 15.06. 14:00 0
Sa, 15.06. 8:00 0
Sa, 15.06. 2:00 0
Ortszeit Schneehöhe (cm)
So, 16.06. 23:00 0
So, 16.06. 22:50 0
So, 16.06. 22:40 -
So, 16.06. 22:30 0
So, 16.06. 22:20 0
So, 16.06. 22:10 -
So, 16.06. 22:00 0
So, 16.06. 21:30 0
So, 16.06. 21:00 0
So, 16.06. 20:30 0
So, 16.06. 20:00 0
Link zu dieser Seite / Seite empfehlen

Das Wetter in ...